Villanueva, New Mexico
Current Conditions -  °F | °C
As of 8:53 AM on Saturday 20 Dec 2014 (Local Time) from KCQC Reporting Station
Clear Clear  
Wind Chill: 16°   Ceiling: Unl
Heat Index: 29°   Visibility: 10mi
Dew Point: 19°   Wind: 18mph
Humidity: 67%   Direction: 310°NW
Pressure: 30.06"   Gusts: NA
Location:  35.27°N, 105.36°W
Report Text: KCQC 201553Z AUTO 31016KT 10SM CLR M02/M07 A3006 RMK AO2 PK WND 30027/1529 SLP194 T10171072
Loading
Personal Weather Stations






























Interactive Weather Map New forecast layout! Learn more

10-Day Weather Forecast

Advertisements
Track Severe Weather on mobile